createdAt,value
2017-11-04T00:00:09.784Z,67.5
2017-11-04T00:01:09.793Z,67.5
2017-11-04T00:02:09.826Z,67.5
2017-11-04T00:03:09.858Z,67.5
2017-11-04T00:04:09.819Z,67.5
2017-11-04T00:05:09.813Z,67.5
2017-11-04T00:06:09.776Z,67.5
2017-11-04T00:07:09.799Z,67.5
2017-11-04T00:08:09.872Z,67.5
2017-11-04T00:09:09.803Z,67.5
2017-11-04T00:10:09.822Z,67.5
2017-11-04T00:11:09.777Z,67.5
2017-11-04T00:12:09.803Z,67.5
2017-11-04T00:13:09.859Z,67.5
2017-11-04T00:14:09.827Z,67.5
2017-11-04T00:15:09.811Z,67.5
2017-11-04T00:16:09.799Z,67.5
2017-11-04T00:17:09.779Z,67.5
2017-11-04T00:18:09.876Z,67.5
2017-11-04T00:19:09.788Z,67.5
2017-11-04T00:20:09.690Z,67.5
2017-11-04T00:21:09.671Z,67.5
2017-11-04T00:22:09.626Z,67.5
2017-11-04T00:23:09.718Z,67.5
2017-11-04T00:24:09.667Z,67.5
2017-11-04T00:25:09.675Z,67.5
2017-11-04T00:26:09.677Z,67.5
2017-11-04T00:27:09.677Z,67.5
2017-11-04T00:28:09.780Z,67.5
2017-11-04T00:29:09.678Z,67.5
2017-11-04T00:30:09.691Z,67.5
2017-11-04T00:31:09.671Z,67.5
2017-11-04T00:36:31.125Z,67.5
2017-11-04T00:37:09.681Z,67.5
2017-11-04T00:38:09.685Z,67.5
2017-11-04T00:39:09.738Z,67.5
2017-11-04T00:40:09.669Z,67.5
2017-11-04T00:41:09.669Z,67.5
2017-11-04T00:42:09.653Z,67.5
2017-11-04T00:43:09.699Z,67.5
2017-11-04T00:44:09.725Z,67.5
2017-11-04T00:45:09.688Z,67.5
2017-11-04T00:46:09.690Z,67.5
2017-11-04T00:47:12.757Z,67.5
2017-11-04T00:48:09.721Z,67.5
2017-11-04T00:49:09.719Z,67.5
2017-11-04T00:50:09.684Z,67.5
2017-11-04T00:51:09.661Z,67.5
2017-11-04T00:52:09.688Z,67.5
2017-11-04T00:53:09.655Z,67.5
2017-11-04T00:54:09.736Z,67.5
2017-11-04T00:55:09.653Z,67.5
2017-11-04T00:56:09.672Z,67.5
2017-11-04T00:57:09.690Z,67.5
2017-11-04T00:58:09.671Z,67.5
2017-11-04T00:59:09.703Z,67.5
2017-11-04T01:00:09.654Z,67.5
2017-11-04T01:01:09.675Z,67.5
2017-11-04T01:02:09.663Z,67.5
2017-11-04T01:03:09.664Z,67.5
2017-11-04T01:04:09.719Z,67.5
2017-11-04T01:05:09.649Z,67.5
2017-11-04T01:06:09.665Z,67.5
2017-11-04T01:07:09.681Z,67.5
2017-11-04T01:08:09.676Z,67.5
2017-11-04T01:09:09.763Z,67.5
2017-11-04T01:10:09.672Z,67.5
2017-11-04T01:11:09.664Z,67.5
2017-11-04T01:12:09.674Z,67.5
2017-11-04T01:13:09.662Z,67.5
2017-11-04T01:14:09.691Z,67.5
2017-11-04T01:15:09.676Z,67.5
2017-11-04T01:16:09.642Z,67.5
2017-11-04T01:17:09.649Z,67.5
2017-11-04T01:18:09.674Z,67.5
2017-11-04T01:19:09.706Z,67.5
2017-11-04T01:20:09.649Z,67.5
2017-11-04T01:21:09.671Z,67.5
2017-11-04T01:22:09.674Z,67.5
2017-11-04T01:27:32.014Z,67.5
2017-11-04T01:28:09.614Z,67.5
2017-11-04T01:29:09.668Z,67.5
2017-11-04T01:30:09.752Z,67.5
2017-11-04T01:31:09.591Z,67.5
2017-11-04T01:32:09.669Z,67.5
2017-11-04T01:33:09.662Z,67.5
2017-11-04T01:34:12.638Z,67.5
2017-11-04T01:35:09.691Z,67.5
2017-11-04T01:36:09.648Z,67.5
2017-11-04T01:37:09.676Z,67.5
2017-11-04T01:38:09.617Z,67.5
2017-11-04T01:39:09.642Z,67.5
2017-11-04T01:40:09.714Z,67.5
2017-11-04T01:41:09.642Z,67.5
2017-11-04T01:42:09.640Z,67.5
2017-11-04T01:43:09.643Z,67.5
2017-11-04T01:44:09.655Z,67.5
2017-11-04T01:45:09.709Z,67.5
2017-11-04T01:46:09.621Z,67.5
2017-11-04T01:47:09.657Z,67.5
2017-11-04T01:48:09.653Z,67.5
2017-11-04T01:49:09.648Z,67.5
2017-11-04T01:50:09.717Z,67.5
2017-11-04T01:51:09.637Z,67.5
2017-11-04T01:52:09.657Z,67.5
2017-11-04T01:53:09.651Z,67.5
2017-11-04T01:54:09.657Z,67.5
2017-11-04T01:55:09.727Z,67.5
2017-11-04T01:56:09.641Z,67.5
2017-11-04T01:57:09.647Z,67.5
2017-11-04T01:58:09.619Z,67.5
2017-11-04T01:59:09.653Z,67.5
2017-11-04T02:00:09.669Z,67.5
2017-11-04T02:01:09.630Z,67.5
2017-11-04T02:02:09.637Z,67.5
2017-11-04T02:03:09.641Z,67.5
2017-11-04T02:04:09.612Z,67.5
2017-11-04T02:05:09.688Z,67.5
2017-11-04T02:06:09.647Z,67.5
2017-11-04T02:07:09.663Z,67.5
2017-11-04T02:08:09.620Z,67.5
2017-11-04T02:09:09.647Z,67.5
2017-11-04T02:10:09.666Z,67.5
2017-11-04T02:11:09.607Z,67.5
2017-11-04T02:12:09.638Z,67.5
2017-11-04T02:13:09.622Z,67.5
2017-11-04T02:14:09.607Z,67.5
2017-11-04T02:15:09.691Z,67.5
2017-11-04T02:16:09.640Z,67.5
2017-11-04T02:17:09.633Z,67.5
2017-11-04T02:18:09.612Z,67.5
2017-11-04T02:19:19.522Z,67.5
2017-11-04T02:20:09.666Z,67.5
2017-11-04T02:21:09.626Z,67.5
2017-11-04T02:22:09.609Z,67.5
2017-11-04T02:23:09.623Z,67.5
2017-11-04T02:24:09.649Z,67.5
2017-11-04T02:25:09.685Z,67.5
2017-11-04T02:26:09.634Z,67.5
2017-11-04T02:27:09.593Z,67.5
2017-11-04T02:28:09.627Z,67.5
2017-11-04T02:29:09.628Z,67.5
2017-11-04T02:30:09.688Z,67.5
2017-11-04T02:31:09.605Z,67.5
2017-11-04T02:32:09.617Z,67.5
2017-11-04T02:33:09.638Z,67.5
2017-11-04T02:34:09.596Z,67.5
2017-11-04T02:35:09.716Z,67.5
2017-11-04T02:36:09.610Z,67.5
2017-11-04T02:37:09.608Z,67.5
2017-11-04T02:38:09.621Z,67.5
2017-11-04T02:39:09.583Z,67.5
2017-11-04T02:40:09.654Z,67.5
2017-11-04T02:41:09.635Z,67.5
2017-11-04T02:42:09.624Z,67.5
2017-11-04T02:43:09.619Z,67.5
2017-11-04T02:44:09.576Z,67.5
2017-11-04T02:45:09.735Z,67.5
2017-11-04T02:46:09.588Z,67.5
2017-11-04T02:47:09.619Z,67.5
2017-11-04T02:48:09.635Z,67.5
2017-11-04T02:49:09.597Z,67.5
2017-11-04T02:50:09.771Z,67.5
2017-11-04T02:51:09.633Z,67.5
2017-11-04T02:52:09.593Z,67.5
2017-11-04T02:53:09.578Z,67.5
2017-11-04T02:54:09.605Z,67.5
2017-11-04T02:55:09.740Z,67.5
2017-11-04T02:56:09.603Z,67.5
2017-11-04T02:57:09.609Z,67.5
2017-11-04T02:58:09.593Z,67.5
2017-11-04T02:59:09.596Z,67.5
2017-11-04T03:00:09.666Z,67.5
2017-11-04T03:01:09.630Z,67.5
2017-11-04T03:02:09.618Z,67.5
2017-11-04T03:03:09.596Z,67.5
2017-11-04T03:04:09.583Z,67.5
2017-11-04T03:05:09.666Z,67.5
2017-11-04T03:06:09.592Z,67.5
2017-11-04T03:07:09.607Z,67.5
2017-11-04T03:08:09.623Z,67.5
2017-11-04T03:09:09.600Z,67.5
2017-11-04T03:10:09.669Z,67.5
2017-11-04T03:11:09.592Z,67.5
2017-11-04T03:12:09.619Z,67.5
2017-11-04T03:13:09.578Z,67.5
2017-11-04T03:14:09.586Z,67.5
2017-11-04T03:15:09.603Z,67.5
2017-11-04T03:16:09.585Z,67.5
2017-11-04T03:17:09.645Z,67.5
2017-11-04T03:18:09.586Z,67.5
2017-11-04T03:19:09.596Z,67.5
2017-11-04T03:20:09.656Z,67.5
2017-11-04T03:21:09.563Z,67.5
2017-11-04T03:22:09.604Z,67.5
2017-11-04T03:23:09.602Z,67.5
2017-11-04T03:24:09.627Z,67.5
2017-11-04T03:25:09.625Z,67.5
2017-11-04T03:26:09.582Z,67.5
2017-11-04T03:27:09.619Z,67.5
2017-11-04T03:28:09.614Z,67.5
2017-11-04T03:29:09.554Z,67.5
2017-11-04T03:30:12.529Z,67.5
2017-11-04T03:31:09.675Z,67.5
2017-11-04T03:32:09.596Z,67.5
2017-11-04T03:33:09.558Z,67.5
2017-11-04T03:34:09.597Z,67.5
2017-11-04T03:35:09.566Z,67.5
2017-11-04T03:36:09.595Z,67.5
2017-11-04T03:37:09.605Z,67.5
2017-11-04T03:38:09.590Z,67.5
2017-11-04T03:39:09.629Z,67.5
2017-11-04T03:40:09.569Z,67.5
2017-11-04T03:41:09.590Z,67.5
2017-11-04T03:42:09.593Z,67.5
2017-11-04T03:43:09.534Z,67.5
2017-11-04T03:44:09.588Z,67.5
2017-11-04T03:45:09.588Z,67.5
2017-11-04T03:46:09.657Z,67.5
2017-11-04T03:47:09.586Z,67.5
2017-11-04T03:48:09.589Z,67.5
2017-11-04T03:49:09.588Z,67.5
2017-11-04T03:50:09.606Z,67.5
2017-11-04T03:51:09.634Z,67.5
2017-11-04T03:52:09.559Z,67.5
2017-11-04T03:53:09.570Z,67.5
2017-11-04T03:54:09.559Z,67.5
2017-11-04T03:55:09.558Z,67.5
2017-11-04T03:56:09.590Z,67.5
2017-11-04T03:57:09.571Z,67.5
2017-11-04T03:58:09.568Z,67.5
2017-11-04T03:59:09.585Z,67.5
2017-11-04T04:00:09.552Z,67.5
2017-11-04T04:01:09.640Z,67.5
2017-11-04T04:02:09.574Z,67.5
2017-11-04T04:03:09.570Z,67.5
2017-11-04T04:04:09.584Z,67.5
2017-11-04T04:05:09.562Z,67.5
2017-11-04T04:06:09.671Z,67.5
2017-11-04T04:07:09.591Z,67.5
2017-11-04T04:08:09.568Z,67.5
2017-11-04T04:09:09.560Z,67.5
2017-11-04T04:10:09.573Z,67.5
2017-11-04T04:11:09.648Z,67.5
2017-11-04T04:12:09.572Z,67.5
2017-11-04T04:13:09.552Z,67.5
2017-11-04T04:14:09.544Z,67.5
2017-11-04T04:15:09.559Z,67.5
2017-11-04T04:16:09.670Z,67.5
2017-11-04T04:17:09.569Z,67.5
2017-11-04T04:18:09.548Z,67.5
2017-11-04T04:19:09.564Z,67.5
2017-11-04T04:20:09.576Z,67.5
2017-11-04T04:21:09.658Z,67.5
2017-11-04T04:22:09.513Z,67.5
2017-11-04T04:23:09.555Z,67.5
2017-11-04T04:24:09.542Z,67.5
2017-11-04T04:25:09.533Z,67.5
2017-11-04T04:26:09.630Z,67.5
2017-11-04T04:27:09.579Z,67.5
2017-11-04T04:28:09.544Z,67.5
2017-11-04T04:29:09.550Z,67.5
2017-11-04T04:30:09.521Z,67.5
2017-11-04T04:31:09.617Z,67.5
2017-11-04T04:32:09.519Z,67.5
2017-11-04T04:33:09.580Z,67.5
2017-11-04T04:34:09.575Z,67.5
2017-11-04T04:35:09.545Z,67.5
2017-11-04T04:36:09.640Z,67.5
2017-11-04T04:37:09.550Z,67.5
2017-11-04T04:38:09.525Z,67.5
2017-11-04T04:39:09.574Z,67.5
2017-11-04T04:40:09.552Z,67.5
2017-11-04T04:41:09.583Z,67.5
2017-11-04T04:42:09.531Z,67.5
2017-11-04T04:43:09.537Z,67.5
2017-11-04T04:44:09.536Z,67.5
2017-11-04T04:45:09.532Z,67.5
2017-11-04T04:46:09.585Z,67.5
2017-11-04T04:47:09.522Z,67.5
2017-11-04T04:48:09.544Z,67.5
2017-11-04T04:49:09.572Z,67.5
2017-11-04T04:50:09.539Z,67.5
2017-11-04T04:51:09.633Z,67.5
2017-11-04T04:52:09.555Z,67.5
2017-11-04T04:53:09.546Z,67.5
2017-11-04T04:54:09.537Z,67.5
2017-11-04T04:55:09.528Z,67.5
2017-11-04T04:56:09.639Z,67.5
2017-11-04T04:57:09.555Z,67.5
2017-11-04T04:58:09.539Z,67.5
2017-11-04T04:59:09.552Z,67.5
2017-11-04T05:00:09.507Z,67.5
2017-11-04T05:01:09.656Z,67.5
2017-11-04T05:02:09.526Z,67.5
2017-11-04T05:03:09.510Z,67.5
2017-11-04T05:04:09.550Z,67.5
2017-11-04T05:05:09.537Z,67.5
2017-11-04T05:06:09.600Z,67.5
2017-11-04T05:07:09.592Z,67.5
2017-11-04T05:08:09.530Z,67.5
2017-11-04T05:09:09.477Z,67.5
2017-11-04T05:10:09.521Z,67.5
2017-11-04T05:11:09.539Z,67.5
2017-11-04T05:12:09.572Z,67.5
2017-11-04T05:13:09.508Z,67.5
2017-11-04T05:14:09.535Z,67.5
2017-11-04T05:15:09.507Z,67.5
2017-11-04T05:16:09.517Z,67.5
2017-11-04T05:17:09.572Z,67.5
2017-11-04T05:18:09.499Z,67.5
2017-11-04T05:19:09.524Z,67.5
2017-11-04T05:20:09.516Z,67.5
2017-11-04T05:21:09.486Z,67.5
2017-11-04T05:22:09.565Z,67.5
2017-11-04T05:23:09.512Z,67.5
2017-11-04T05:24:09.532Z,67.5
2017-11-04T05:25:09.517Z,67.5
2017-11-04T05:26:09.482Z,67.5
2017-11-04T05:27:09.566Z,67.5
2017-11-04T05:28:09.495Z,67.5
2017-11-04T05:29:09.513Z,67.5
2017-11-04T05:30:09.505Z,67.5
2017-11-04T05:31:09.505Z,67.5
2017-11-04T05:32:09.584Z,67.5
2017-11-04T05:33:09.497Z,67.5
2017-11-04T05:34:09.532Z,67.5
2017-11-04T05:35:09.508Z,67.5
2017-11-04T05:36:09.510Z,67.5
2017-11-04T05:37:09.598Z,67.5
2017-11-04T05:38:09.508Z,67.5
2017-11-04T05:39:09.483Z,67.5
2017-11-04T05:40:09.473Z,67.5
2017-11-04T05:41:09.482Z,67.5
2017-11-04T05:42:09.534Z,67.5
2017-11-04T05:43:09.531Z,67.5
2017-11-04T05:44:09.502Z,67.5
2017-11-04T05:45:09.495Z,67.5
2017-11-04T05:46:09.508Z,67.5
2017-11-04T05:47:09.579Z,67.5
2017-11-04T05:48:09.512Z,67.5
2017-11-04T05:49:09.511Z,67.5
2017-11-04T05:50:09.483Z,67.5
2017-11-04T05:51:09.489Z,67.5
2017-11-04T05:52:09.521Z,67.5
2017-11-04T05:53:09.502Z,67.5
2017-11-04T05:54:09.524Z,67.5
2017-11-04T05:55:09.451Z,67.5
2017-11-04T05:56:09.488Z,67.5
2017-11-04T05:57:09.553Z,67.5
2017-11-04T05:58:09.458Z,67.5
2017-11-04T05:59:09.461Z,67.5
2017-11-04T06:00:09.475Z,67.5
2017-11-04T06:01:09.499Z,67.5
2017-11-04T06:02:09.482Z,67.5
2017-11-04T06:03:09.448Z,67.5
2017-11-04T06:04:09.519Z,67.5
2017-11-04T06:05:09.469Z,67.5
2017-11-04T06:06:09.473Z,67.5
2017-11-04T06:07:09.479Z,67.5
2017-11-04T06:08:29.284Z,67.5
2017-11-04T06:09:09.489Z,67.5
2017-11-04T06:10:09.482Z,67.5
2017-11-04T06:11:09.489Z,67.5
2017-11-04T06:12:09.585Z,67.5
2017-11-04T06:13:09.478Z,67.5
2017-11-04T06:14:09.476Z,67.5
2017-11-04T06:15:09.463Z,67.5
2017-11-04T06:16:09.441Z,67.5
2017-11-04T06:17:09.461Z,67.5
2017-11-04T06:18:09.443Z,67.5
2017-11-04T06:19:09.474Z,67.5
2017-11-04T06:20:09.466Z,67.5
2017-11-04T06:21:09.490Z,67.5
2017-11-04T06:22:09.523Z,67.5
2017-11-04T06:23:09.474Z,67.5
2017-11-04T06:24:09.443Z,67.5
2017-11-04T06:25:09.482Z,67.5
2017-11-04T06:26:09.507Z,67.5
2017-11-04T06:27:09.515Z,67.5
2017-11-04T06:28:09.494Z,67.5
2017-11-04T06:29:09.518Z,67.5
2017-11-04T06:30:09.455Z,67.5
2017-11-04T06:31:09.500Z,67.5
2017-11-04T06:32:10.802Z,67.5
2017-11-04T06:33:09.405Z,67.5
2017-11-04T06:34:09.455Z,67.5
2017-11-04T06:35:09.436Z,67.5
2017-11-04T06:36:09.463Z,67.5
2017-11-04T06:37:09.569Z,67.5
2017-11-04T06:38:09.472Z,67.5
2017-11-04T06:39:09.468Z,67.5
2017-11-04T06:40:09.438Z,67.5
2017-11-04T06:41:09.432Z,67.5
2017-11-04T06:42:09.494Z,67.5
2017-11-04T06:43:09.464Z,67.5
2017-11-04T06:44:09.475Z,67.5
2017-11-04T06:45:09.490Z,67.5
2017-11-04T06:46:09.471Z,67.5
2017-11-04T06:47:09.562Z,67.5
2017-11-04T06:48:09.403Z,67.5
2017-11-04T06:49:09.474Z,67.5
2017-11-04T06:50:09.472Z,67.5
2017-11-04T06:51:09.476Z,67.5
2017-11-04T06:52:09.553Z,67.5
2017-11-04T06:53:09.506Z,67.5
2017-11-04T06:54:09.461Z,67.5
2017-11-04T06:55:09.453Z,67.5
2017-11-04T06:56:09.447Z,67.5
2017-11-04T06:57:09.542Z,67.5
2017-11-04T06:58:09.472Z,67.5
2017-11-04T06:59:09.463Z,67.5
2017-11-04T07:00:09.484Z,67.5
2017-11-04T07:01:09.484Z,67.5
2017-11-04T07:02:09.483Z,67.5
2017-11-04T07:03:09.418Z,67.5
2017-11-04T07:04:11.216Z,67.5
2017-11-04T07:05:18.749Z,67.5
2017-11-04T07:06:12.224Z,67.5
2017-11-04T07:07:09.761Z,67.5
2017-11-04T07:08:09.921Z,67.5
2017-11-04T07:09:12.029Z,67.5
2017-11-04T07:10:09.845Z,67.5
2017-11-04T07:11:09.867Z,67.5
2017-11-04T07:12:09.857Z,67.5
2017-11-04T07:13:16.869Z,67.5
2017-11-04T07:14:09.803Z,67.5
2017-11-04T07:15:12.007Z,67.5
2017-11-04T07:16:09.955Z,67.5
2017-11-04T07:17:12.213Z,67.5
2017-11-04T07:18:10.041Z,67.5
2017-11-04T07:19:13.206Z,67.5
2017-11-04T07:20:09.959Z,67.5
2017-11-04T07:21:09.968Z,67.5
2017-11-04T07:22:09.422Z,67.5
2017-11-04T07:23:09.486Z,67.5
2017-11-04T07:24:09.462Z,67.5
2017-11-04T07:25:09.393Z,67.5
2017-11-04T07:26:09.453Z,67.5
2017-11-04T07:27:09.433Z,67.5
2017-11-04T07:28:09.469Z,67.5
2017-11-04T07:29:09.446Z,67.5
2017-11-04T07:30:09.409Z,67.5
2017-11-04T07:31:09.439Z,67.5
2017-11-04T07:32:09.429Z,67.5
2017-11-04T07:33:09.417Z,67.5
2017-11-04T07:34:09.459Z,67.5
2017-11-04T07:35:09.429Z,67.5
2017-11-04T07:36:09.409Z,67.5
2017-11-04T07:37:09.427Z,67.5
2017-11-04T07:38:09.495Z,67.5
2017-11-04T07:39:09.400Z,67.5
2017-11-04T07:40:09.451Z,67.5
2017-11-04T07:41:09.435Z,67.5
2017-11-04T07:42:09.388Z,67.5
2017-11-04T07:43:09.528Z,67.5
2017-11-04T07:44:09.412Z,67.5
2017-11-04T07:45:09.405Z,67.5
2017-11-04T07:46:09.451Z,67.5
2017-11-04T07:47:09.432Z,67.5
2017-11-04T07:48:09.478Z,67.5
2017-11-04T07:49:09.429Z,67.5
2017-11-04T07:50:09.449Z,67.5
2017-11-04T07:51:29.213Z,67.5
2017-11-04T07:52:09.412Z,67.5
2017-11-04T07:53:09.509Z,67.5
2017-11-04T07:54:09.414Z,67.5
2017-11-04T07:55:09.401Z,67.5
2017-11-04T07:56:09.430Z,67.5
2017-11-04T07:57:09.377Z,67.5
2017-11-04T07:58:09.756Z,67.5
2017-11-04T07:59:09.350Z,67.5
2017-11-04T08:00:09.443Z,67.5
2017-11-04T08:01:09.536Z,67.5
2017-11-04T08:02:31.637Z,67.5
2017-11-04T08:03:16.959Z,67.5
2017-11-04T08:04:09.840Z,67.5
2017-11-04T08:05:09.376Z,67.5
2017-11-04T08:06:09.818Z,67.5
2017-11-04T08:07:09.417Z,67.5
2017-11-04T08:08:09.518Z,67.5
2017-11-04T08:09:11.274Z,67.5
2017-11-04T08:10:09.482Z,67.5
2017-11-04T08:11:09.703Z,67.5
2017-11-04T08:12:09.366Z,67.5
2017-11-04T08:13:09.518Z,67.5
2017-11-04T08:14:09.351Z,67.5
2017-11-04T08:15:16.625Z,67.5
2017-11-04T08:16:21.047Z,67.5
2017-11-04T08:17:12.129Z,67.5
2017-11-04T08:18:18.581Z,67.5
2017-11-04T08:19:11.870Z,67.5
2017-11-04T08:20:10.148Z,67.5
2017-11-04T08:21:12.315Z,67.5
2017-11-04T08:22:10.372Z,67.5
2017-11-04T08:23:10.054Z,67.5
2017-11-04T08:24:46.883Z,67.5
2017-11-04T08:25:50.605Z,67.5
2017-11-04T08:26:23.658Z,67.5
2017-11-04T08:27:11.364Z,67.5
2017-11-04T08:28:12.342Z,67.5
2017-11-04T08:29:11.211Z,67.5
2017-11-04T08:30:10.419Z,67.5
2017-11-04T08:31:10.820Z,67.5
2017-11-04T08:32:19.908Z,67.5
2017-11-04T08:33:48.948Z,67.5
2017-11-04T08:35:03.500Z,67.5
2017-11-04T08:36:11.201Z,67.5
2017-11-04T08:37:36.048Z,67.5
2017-11-04T08:38:39.739Z,67.5
2017-11-04T08:39:36.410Z,67.5
2017-11-04T08:40:45.082Z,67.5
2017-11-04T08:41:59.635Z,67.5
2017-11-04T08:42:56.163Z,67.5
2017-11-04T08:44:03.558Z,67.5
2017-11-04T08:44:43.586Z,67.5
2017-11-04T08:45:48.094Z,67.5
2017-11-04T08:46:38.865Z,67.5
2017-11-04T08:47:43.842Z,67.5
2017-11-04T08:49:08.594Z,67.5
2017-11-04T08:50:37.816Z,67.5
2017-11-04T08:51:50.317Z,67.5
2017-11-04T08:52:37.525Z,67.5
2017-11-04T08:53:44.686Z,67.5
2017-11-04T08:54:42.879Z,67.5
2017-11-04T08:55:30.776Z,67.5
2017-11-04T08:56:30.163Z,67.5
2017-11-04T08:57:25.180Z,67.5
2017-11-04T08:58:10.472Z,67.5
2017-11-04T08:59:09.652Z,67.5
2017-11-04T09:00:10.167Z,67.5
2017-11-04T09:01:09.530Z,67.5
2017-11-04T09:02:09.675Z,67.5
2017-11-04T09:03:09.691Z,67.5
2017-11-04T09:04:09.600Z,67.5
2017-11-04T09:05:12.409Z,67.5
2017-11-04T09:06:11.695Z,67.5
2017-11-04T09:07:12.812Z,67.5
2017-11-04T09:08:13.766Z,67.5
2017-11-04T09:09:10.673Z,67.5
2017-11-04T09:10:12.038Z,67.5
2017-11-04T09:11:09.313Z,67.5
2017-11-04T09:12:15.284Z,67.5
2017-11-04T09:13:21.425Z,67.5
2017-11-04T09:14:19.141Z,67.5
2017-11-04T09:15:14.052Z,67.5
2017-11-04T09:16:09.337Z,67.5
2017-11-04T09:17:09.315Z,67.5
2017-11-04T09:18:09.337Z,67.5
2017-11-04T09:19:09.413Z,67.5
2017-11-04T09:20:09.381Z,67.5
2017-11-04T09:21:09.456Z,67.5
2017-11-04T09:22:09.383Z,67.5
2017-11-04T09:23:09.395Z,67.5
2017-11-04T09:24:09.400Z,67.5
2017-11-04T09:25:09.407Z,67.5
2017-11-04T09:26:09.457Z,67.5
2017-11-04T09:27:09.395Z,67.5
2017-11-04T09:28:09.385Z,67.5
2017-11-04T09:29:32.365Z,67.5
2017-11-04T09:30:09.373Z,67.5
2017-11-04T09:31:09.508Z,67.5
2017-11-04T09:32:09.366Z,67.5
2017-11-04T09:33:09.401Z,67.5
2017-11-04T09:34:09.378Z,67.5
2017-11-04T09:35:09.397Z,67.5
2017-11-04T09:36:09.444Z,67.5
2017-11-04T09:37:09.397Z,67.5
2017-11-04T09:38:09.407Z,67.5
2017-11-04T09:39:09.396Z,67.5
2017-11-04T09:40:09.377Z,67.5
2017-11-04T09:41:09.434Z,67.5
2017-11-04T09:42:09.873Z,67.5
2017-11-04T09:43:09.404Z,67.5
2017-11-04T09:44:09.411Z,67.5
2017-11-04T09:45:09.379Z,67.5
2017-11-04T09:46:09.426Z,67.5
2017-11-04T09:47:09.435Z,67.5
2017-11-04T09:48:09.393Z,67.5
2017-11-04T09:49:09.397Z,67.5
2017-11-04T09:50:09.409Z,67.5
2017-11-04T09:51:09.444Z,67.5
2017-11-04T09:52:09.419Z,67.5
2017-11-04T09:53:09.437Z,67.5
2017-11-04T09:54:09.380Z,67.5
2017-11-04T09:55:09.420Z,67.5
2017-11-04T09:56:09.474Z,67.5
2017-11-04T09:57:09.366Z,67.5
2017-11-04T09:58:09.406Z,67.5
2017-11-04T09:59:09.377Z,67.5
2017-11-04T10:00:09.368Z,67.5
2017-11-04T10:01:09.465Z,67.5
2017-11-04T10:02:09.406Z,67.5
2017-11-04T10:03:09.455Z,67.5
2017-11-04T10:04:09.422Z,67.5
2017-11-04T10:05:09.405Z,67.5
2017-11-04T10:06:09.415Z,67.5
2017-11-04T10:07:09.383Z,67.5
2017-11-04T10:08:09.386Z,67.5
2017-11-04T10:09:09.388Z,67.5
2017-11-04T10:10:09.382Z,67.5
2017-11-04T10:11:09.469Z,67.5
2017-11-04T10:12:09.404Z,67.5
2017-11-04T10:13:09.392Z,67.5
2017-11-04T10:14:09.414Z,67.5
2017-11-04T10:15:09.403Z,67.5
2017-11-04T10:16:09.449Z,67.5
2017-11-04T10:17:09.399Z,67.5
2017-11-04T10:18:09.338Z,67.5
2017-11-04T10:19:09.366Z,67.5
2017-11-04T10:20:09.384Z,67.5
2017-11-04T10:21:09.487Z,67.5
2017-11-04T10:22:09.401Z,67.5
2017-11-04T10:23:09.384Z,67.5
2017-11-04T10:24:09.391Z,67.5
2017-11-04T10:25:09.358Z,67.5
2017-11-04T10:26:09.423Z,67.5
2017-11-04T10:27:09.380Z,67.5
2017-11-04T10:28:09.382Z,67.5
2017-11-04T10:29:09.407Z,67.5
2017-11-04T10:30:09.366Z,67.5
2017-11-04T10:31:09.404Z,67.5
2017-11-04T10:32:09.380Z,67.5
2017-11-04T10:33:09.380Z,67.5
2017-11-04T10:34:09.385Z,67.5
2017-11-04T10:35:09.359Z,67.5
2017-11-04T10:36:09.456Z,67.5
2017-11-04T10:37:09.383Z,67.5
2017-11-04T10:38:09.397Z,67.5
2017-11-04T10:39:09.454Z,67.5
2017-11-04T10:40:09.329Z,67.5
2017-11-04T10:41:12.488Z,67.5
2017-11-04T10:42:09.361Z,67.5
2017-11-04T10:43:09.345Z,67.5
2017-11-04T10:44:09.413Z,67.5
2017-11-04T10:45:09.423Z,67.5
2017-11-04T10:46:09.429Z,67.5
2017-11-04T10:47:09.382Z,67.5
2017-11-04T10:48:09.412Z,67.5
2017-11-04T10:49:09.363Z,67.5
2017-11-04T10:50:09.389Z,67.5
2017-11-04T10:51:09.439Z,67.5
2017-11-04T10:52:09.378Z,67.5
2017-11-04T10:53:09.382Z,67.5
2017-11-04T10:54:09.387Z,67.5
2017-11-04T10:55:09.370Z,67.5
2017-11-04T10:56:09.474Z,67.5
2017-11-04T10:57:09.384Z,67.5
2017-11-04T10:58:09.354Z,67.5
2017-11-04T10:59:09.407Z,67.5
2017-11-04T11:00:09.356Z,67.5
2017-11-04T11:01:09.470Z,67.5
2017-11-04T11:02:09.374Z,67.5
2017-11-04T11:03:09.378Z,67.5
2017-11-04T11:04:09.382Z,67.5
2017-11-04T11:05:09.356Z,67.5
2017-11-04T11:06:09.423Z,67.5
2017-11-04T11:07:09.396Z,67.5
2017-11-04T11:08:09.377Z,67.5
2017-11-04T11:09:09.352Z,67.5
2017-11-04T11:10:09.380Z,67.5
2017-11-04T11:11:09.414Z,67.5
2017-11-04T11:12:09.400Z,67.5
2017-11-04T11:13:09.393Z,67.5
2017-11-04T11:14:09.348Z,67.5
2017-11-04T11:15:09.355Z,67.5
2017-11-04T11:16:09.413Z,67.5
2017-11-04T11:17:09.737Z,67.5
2017-11-04T11:18:09.383Z,67.5
2017-11-04T11:19:09.356Z,67.5
2017-11-04T11:20:09.374Z,67.5
2017-11-04T11:21:09.434Z,67.5
2017-11-04T11:22:09.349Z,67.5
2017-11-04T11:23:19.270Z,67.5
2017-11-04T11:24:09.406Z,67.5
2017-11-04T11:25:09.388Z,67.5
2017-11-04T11:26:19.319Z,67.5
2017-11-04T11:27:09.356Z,67.5
2017-11-04T11:28:09.389Z,67.5
2017-11-04T11:29:09.337Z,67.5
2017-11-04T11:30:09.389Z,67.5
2017-11-04T11:31:09.399Z,67.5
2017-11-04T11:32:09.427Z,67.5
2017-11-04T11:33:09.368Z,67.5
2017-11-04T11:34:09.343Z,67.5
2017-11-04T11:35:29.147Z,67.5
2017-11-04T11:36:09.366Z,67.5
2017-11-04T11:37:09.425Z,67.5
2017-11-04T11:38:09.423Z,67.5
2017-11-04T11:39:09.409Z,67.5
2017-11-04T11:40:09.358Z,67.5
2017-11-04T11:41:09.392Z,67.5
2017-11-04T11:42:09.489Z,67.5
2017-11-04T11:43:18.787Z,67.5
2017-11-04T11:44:09.434Z,67.5
2017-11-04T11:45:09.382Z,67.5
2017-11-04T11:46:09.400Z,67.5
2017-11-04T11:47:09.506Z,67.5
2017-11-04T11:48:09.463Z,67.5
2017-11-04T11:49:09.418Z,67.5
2017-11-04T11:50:09.398Z,67.5
2017-11-04T11:51:09.373Z,67.5
2017-11-04T11:52:09.489Z,67.5
2017-11-04T11:53:09.388Z,67.5
2017-11-04T11:54:09.353Z,67.5
2017-11-04T11:55:09.284Z,67.5
2017-11-04T11:56:09.375Z,67.5
2017-11-04T11:57:09.370Z,67.5
2017-11-04T11:58:09.424Z,67.5
2017-11-04T11:59:09.374Z,67.5
2017-11-04T12:00:10.309Z,67.5
2017-11-04T12:01:09.346Z,67.5
2017-11-04T12:02:09.413Z,67.5
2017-11-04T12:03:09.373Z,67.5
2017-11-04T12:04:09.408Z,67.5
2017-11-04T12:05:09.388Z,67.5
2017-11-04T12:06:09.313Z,67.5
2017-11-04T12:07:10.000Z,67.5
2017-11-04T12:08:09.370Z,67.5
2017-11-04T12:09:09.298Z,67.5
2017-11-04T12:10:09.559Z,67.5
2017-11-04T12:11:09.252Z,67.5
2017-11-04T12:12:09.356Z,67.5
2017-11-04T12:13:09.423Z,67.5
2017-11-04T12:14:09.288Z,67.5
2017-11-04T12:15:09.373Z,67.5
2017-11-04T12:16:09.332Z,67.5
2017-11-04T12:17:09.375Z,67.5
2017-11-04T12:18:09.429Z,67.5
2017-11-04T12:19:09.315Z,67.5
2017-11-04T12:20:09.367Z,67.5
2017-11-04T12:21:09.365Z,67.5
2017-11-04T12:22:09.347Z,67.5
2017-11-04T12:23:09.477Z,67.5
2017-11-04T12:24:09.332Z,67.5
2017-11-04T12:25:09.317Z,67.5
2017-11-04T12:26:09.402Z,67.5
2017-11-04T12:27:09.359Z,67.5
2017-11-04T12:28:09.471Z,67.5
2017-11-04T12:29:09.393Z,67.5
2017-11-04T12:30:09.363Z,67.5
2017-11-04T12:31:09.338Z,67.5
2017-11-04T12:32:09.382Z,67.5
2017-11-04T12:33:09.408Z,67.5
2017-11-04T12:34:09.347Z,67.5
2017-11-04T12:35:09.400Z,67.5
2017-11-04T12:37:13.689Z,67.5
2017-11-04T12:38:09.499Z,67.5
2017-11-04T12:39:09.379Z,67.5
2017-11-04T12:40:09.382Z,67.5
2017-11-04T12:41:09.347Z,67.5
2017-11-04T12:42:09.384Z,67.5
2017-11-04T12:43:18.736Z,67.5
2017-11-04T12:44:09.886Z,67.5
2017-11-04T12:45:09.862Z,67.5
2017-11-04T12:46:10.147Z,67.5
2017-11-04T12:47:09.481Z,57.6
2017-11-04T12:48:09.451Z,50.8
2017-11-04T12:49:09.356Z,47.7
2017-11-04T12:50:09.332Z,46.3
2017-11-04T12:51:09.368Z,45.6
2017-11-04T12:52:09.421Z,45.3
2017-11-04T12:53:09.433Z,45.1
2017-11-04T12:54:09.374Z,45.1
2017-11-04T12:55:09.378Z,45
2017-11-04T12:56:09.354Z,45
2017-11-04T12:57:09.918Z,45
2017-11-04T12:58:09.396Z,55.2
2017-11-04T12:59:09.320Z,73.8
2017-11-04T13:00:09.673Z,82.4
2017-11-04T13:01:11.586Z,86.5
2017-11-04T13:02:09.648Z,88.4
2017-11-04T13:03:10.814Z,89.3
2017-11-04T13:04:09.813Z,89.7
2017-11-04T13:05:09.832Z,89.8
2017-11-04T13:06:11.625Z,89.9
2017-11-04T13:07:09.786Z,90
2017-11-04T13:08:21.889Z,90
2017-11-04T13:09:09.664Z,90
2017-11-04T13:10:09.823Z,90
2017-11-04T13:11:09.840Z,90
2017-11-04T13:12:20.037Z,90
2017-11-04T13:13:09.629Z,90
2017-11-04T13:14:12.881Z,90
2017-11-04T13:15:09.497Z,90
2017-11-04T13:16:09.746Z,90
2017-11-04T13:17:09.694Z,90
2017-11-04T13:18:09.657Z,90
2017-11-04T13:19:09.604Z,90
2017-11-04T13:20:09.891Z,90
2017-11-04T13:21:09.617Z,90
2017-11-04T13:22:09.322Z,90
2017-11-04T13:23:09.352Z,90
2017-11-04T13:24:09.437Z,90
2017-11-04T13:25:10.661Z,90
2017-11-04T13:26:11.681Z,90
2017-11-04T13:27:09.613Z,90
2017-11-04T13:28:09.800Z,90
2017-11-04T13:29:11.740Z,90
2017-11-04T13:30:09.642Z,90
2017-11-04T13:31:09.566Z,90